Time;durP1;ratioP1;P1;durP2;ratioP2;P2;SDS_P1;SDS_P2;PMS_P1;PMS_P2;Temp;Humidity;BMP_temperature;BMP_pressure;BME280_temperature;BME280_humidity;BME280_pressure;Samples;Min_cycle;Max_cycle;Signal;HPM_P1;HPM_P2
2024/03/26 00:04:45;;;;;;;;;;;4.60;1.00;;;;;;5014345;28;20411;-78
2024/03/26 00:16:20;;;;;;;;;;;4.40;1.00;;;;;;5004513;28;19964;-76
2024/03/26 00:18:45;;;;;;;;;;;4.30;1.00;;;;;;5014193;28;19914;-76
2024/03/26 00:21:11;;;;;;;;;;;4.30;1.00;;;;;;5014925;28;20316;-76
2024/03/26 00:23:52;;;;;;;;;;;4.20;1.00;;;;;;5008553;28;19910;-76
2024/03/26 00:26:28;;;;;;;;;;;4.20;1.00;;;;;;4994813;28;19910;-75
2024/03/26 00:28:54;;;;;;;;;;;4.10;1.00;;;;;;5014359;28;19959;-75
2024/03/26 00:31:34;;;;;;;;;;;4.10;1.00;;;;;;5014494;28;19918;-76
2024/03/26 00:34:10;;;;;;;;;;;4.10;1.00;;;;;;5029122;28;19920;-75
2024/03/26 00:36:36;;;;;;;;;;;4.10;1.00;;;;;;5017097;28;19914;-76
2024/03/26 00:39:02;;;;;;;;;;;4.00;1.00;;;;;;5014440;28;19932;-76
2024/03/26 00:41:28;;;;;;;;;;;4.00;1.00;;;;;;5014359;28;19909;-75
2024/03/26 00:44:10;;;;;;;;;;;4.00;1.00;;;;;;5014388;28;20284;-75
2024/03/26 00:46:36;;;;;;;;;;;3.90;1.00;;;;;;5014581;28;19914;-76
2024/03/26 00:49:04;;;;;;;;;;;3.90;1.00;;;;;;5014431;28;20368;-75
2024/03/26 00:51:30;;;;;;;;;;;3.90;1.00;;;;;;5014229;28;19914;-76
2024/03/26 00:54:04;;;;;;;;;;;3.90;1.00;;;;;;5013995;28;19913;-75
2024/03/26 00:56:30;;;;;;;;;;;3.80;1.00;;;;;;5007328;28;19913;-76
2024/03/26 00:58:56;;;;;;;;;;;3.80;1.00;;;;;;5033764;28;20418;-75
2024/03/26 01:01:21;;;;;;;;;;;3.80;1.00;;;;;;5014877;28;19909;-78
2024/03/26 01:04:04;;;;;;;;;;;3.80;1.00;;;;;;5013989;28;19910;-78
2024/03/26 01:09:33;;;;;;;;;;;3.90;1.00;;;;;;5023844;28;19921;-78
2024/03/26 01:15:02;;;;;;;;;;;3.80;1.00;;;;;;5031072;28;19928;-78
2024/03/26 01:20:35;;;;;;;;;;;3.80;1.00;;;;;;5054698;28;20427;-78
2024/03/26 01:23:34;;;;;;;;;;;3.80;1.00;;;;;;5074654;28;19916;-79
2024/03/26 01:26:10;;;;;;;;;;;3.80;1.00;;;;;;5037183;28;19909;-78
2024/03/26 01:31:39;;;;;;;;;;;3.90;1.00;;;;;;5057543;28;19962;-76
2024/03/26 01:34:10;;;;;;;;;;;3.90;1.00;;;;;;5056987;28;19991;-75
2024/03/26 01:36:53;;;;;;;;;;;3.90;1.00;;;;;;5056788;28;19916;-76
2024/03/26 01:39:40;;;;;;;;;;;3.90;1.00;;;;;;5064191;28;20348;-75
2024/03/26 01:42:34;;;;;;;;;;;3.90;1.00;;;;;;5051073;28;19909;-75
2024/03/26 01:45:34;;;;;;;;;;;3.90;1.00;;;;;;5077009;28;19908;-75
2024/03/26 01:48:00;;;;;;;;;;;3.90;1.00;;;;;;5073467;28;19909;-75
2024/03/26 01:50:41;;;;;;;;;;;3.90;1.00;;;;;;5072948;28;19919;-76
2024/03/26 01:53:06;;;;;;;;;;;4.00;1.00;;;;;;5052512;28;19913;-75
2024/03/26 01:55:34;;;;;;;;;;;4.00;1.00;;;;;;5036991;28;19909;-76
2024/03/26 02:01:17;;;;;;;;;;;4.00;1.00;;;;;;5040758;28;19920;-76
2024/03/26 02:03:46;;;;;;;;;;;4.00;1.00;;;;;;5056735;28;19913;-78
2024/03/26 02:06:12;;;;;;;;;;;4.00;1.00;;;;;;5036406;28;19916;-78
2024/03/26 02:12:04;;;;;;;;;;;4.10;1.00;;;;;;5047856;28;19920;-78
2024/03/26 02:17:33;;;;;;;;;;;4.00;1.00;;;;;;5058553;28;19936;-76
2024/03/26 02:19:59;;;;;;;;;;;4.10;1.00;;;;;;5056200;28;19909;-76
2024/03/26 02:22:28;;;;;;;;;;;4.10;1.00;;;;;;5036007;28;19916;-75
2024/03/26 02:24:58;;;;;;;;;;;4.10;1.00;;;;;;5050948;28;19909;-76
2024/03/26 02:27:34;;;;;;;;;;;4.10;1.00;;;;;;5047589;28;19909;-77
2024/03/26 02:30:05;;;;;;;;;;;4.10;1.00;;;;;;5036219;28;19959;-76
2024/03/26 02:32:34;;;;;;;;;;;4.10;1.00;;;;;;5054574;28;19917;-76
2024/03/26 02:35:10;;;;;;;;;;;4.10;1.00;;;;;;5051628;28;19909;-76
2024/03/26 02:37:53;;;;;;;;;;;4.00;1.00;;;;;;5048294;28;19967;-75
2024/03/26 02:40:29;;;;;;;;;;;4.00;1.00;;;;;;5067453;28;19955;-75
2024/03/26 02:43:02;;;;;;;;;;;4.00;1.00;;;;;;5059695;28;19944;-76
2024/03/26 02:45:29;;;;;;;;;;;4.00;1.00;;;;;;5056106;28;19967;-76
2024/03/26 02:51:29;;;;;;;;;;;3.90;1.00;;;;;;5044856;28;19932;-78
2024/03/26 02:54:29;;;;;;;;;;;3.90;1.00;;;;;;5075253;28;20011;-78
2024/03/26 03:00:11;;;;;;;;;;;3.70;1.00;;;;;;5044429;28;19915;-78
2024/03/26 03:02:53;;;;;;;;;;;3.60;1.00;;;;;;5055326;28;19994;-78
2024/03/26 03:05:29;;;;;;;;;;;3.50;1.00;;;;;;5041536;28;19909;-80
2024/03/26 03:07:54;;;;;;;;;;;3.50;1.00;;;;;;5046665;28;20003;-78
2024/03/26 03:13:23;;;;;;;;;;;3.40;1.00;;;;;;5041760;28;19976;-78
2024/03/26 03:18:53;;;;;;;;;;;3.40;1.00;;;;;;5048727;28;19932;-76
2024/03/26 03:21:22;;;;;;;;;;;3.30;1.00;;;;;;5035278;28;19955;-76
2024/03/26 03:23:48;;;;;;;;;;;3.20;1.00;;;;;;5056951;28;19919;-76
2024/03/26 03:26:14;;;;;;;;;;;3.10;1.00;;;;;;5074636;28;19908;-76
2024/03/26 03:28:39;;;;;;;;;;;3.10;1.00;;;;;;5071579;28;19909;-76
2024/03/26 03:31:05;;;;;;;;;;;3.00;1.00;;;;;;5061649;28;19931;-76
2024/03/26 03:33:35;;;;;;;;;;;3.00;1.00;;;;;;5050097;28;19963;-76
2024/03/26 03:36:05;;;;;;;;;;;3.00;1.00;;;;;;5062092;28;19960;-76
2024/03/26 03:38:34;;;;;;;;;;;2.90;1.00;;;;;;5054895;28;19920;-77
2024/03/26 03:41:11;;;;;;;;;;;2.90;1.00;;;;;;5061328;28;19919;-77
2024/03/26 03:44:10;;;;;;;;;;;2.90;1.00;;;;;;5054708;28;20054;-76
2024/03/26 03:46:47;;;;;;;;;;;2.80;1.00;;;;;;5054652;28;19909;-76
2024/03/26 03:49:23;;;;;;;;;;;2.80;1.00;;;;;;5036396;28;19913;-76
2024/03/26 03:51:52;;;;;;;;;;;2.70;1.00;;;;;;5045614;28;19958;-76
2024/03/26 03:54:18;;;;;;;;;;;2.70;1.00;;;;;;5034696;28;20004;-76
2024/03/26 03:56:44;;;;;;;;;;;2.70;1.00;;;;;;5044676;28;19951;-76
2024/03/26 03:59:23;;;;;;;;;;;2.60;1.00;;;;;;5054642;28;19909;-76
2024/03/26 04:01:59;;;;;;;;;;;2.60;1.00;;;;;;5039649;28;19982;-76
2024/03/26 04:07:47;;;;;;;;;;;2.60;1.00;;;;;;5046808;28;20468;-78
2024/03/26 04:13:15;;;;;;;;;;;2.60;1.00;;;;;;5053733;28;19935;-78
2024/03/26 04:15:41;;;;;;;;;;;2.60;1.00;;;;;;5034724;28;20344;-78
2024/03/26 04:18:07;;;;;;;;;;;2.70;1.00;;;;;;5046466;28;19956;-76
2024/03/26 04:20:47;;;;;;;;;;;2.70;1.00;;;;;;5064019;28;19917;-76
2024/03/26 04:23:35;;;;;;;;;;;2.70;1.00;;;;;;5063124;28;19913;-76
2024/03/26 04:26:05;;;;;;;;;;;2.60;1.00;;;;;;5054156;28;19995;-76
2024/03/26 04:28:41;;;;;;;;;;;2.60;1.00;;;;;;5053974;28;19940;-76
2024/03/26 04:31:17;;;;;;;;;;;2.60;1.00;;;;;;5041843;28;19967;-76
2024/03/26 04:33:47;;;;;;;;;;;2.60;1.00;;;;;;5050465;28;19913;-77
2024/03/26 04:36:23;;;;;;;;;;;2.60;1.00;;;;;;5064984;28;19913;-76
2024/03/26 04:41:51;;;;;;;;;;;2.50;1.00;;;;;;5056063;28;19919;-76
2024/03/26 04:44:17;;;;;;;;;;;2.50;1.00;;;;;;5076164;28;19909;-76
2024/03/26 04:46:53;;;;;;;;;;;2.50;1.00;;;;;;5077697;28;19916;-76
2024/03/26 04:49:41;;;;;;;;;;;2.50;1.00;;;;;;5062757;28;19916;-77
2024/03/26 04:52:29;;;;;;;;;;;2.50;1.00;;;;;;5046564;28;20024;-77
2024/03/26 04:55:17;;;;;;;;;;;2.50;1.00;;;;;;5037748;28;19971;-77
2024/03/26 04:57:53;;;;;;;;;;;2.50;1.00;;;;;;5041500;28;19920;-76
2024/03/26 05:06:24;;;;;;;;;;;2.50;1.00;;;;;;5048863;28;19916;-76
2024/03/26 05:11:59;;;;;;;;;;;2.60;1.00;;;;;;5044229;28;19928;-76
2024/03/26 05:20:47;;;;;;;;;;;2.60;1.00;;;;;;5053551;28;19964;-80
2024/03/26 05:26:52;;;;;;;;;;;2.70;1.00;;;;;;5058983;28;19935;-80
2024/03/26 05:32:21;;;;;;;;;;;2.80;1.00;;;;;;5054961;28;20422;-80
2024/03/26 05:35:16;;;;;;;;;;;2.90;1.00;;;;;;5058192;28;19913;-76
2024/03/26 05:40:29;;;;;;;;;;;2.90;1.00;;;;;;5060845;28;19919;-77
2024/03/26 05:42:54;;;;;;;;;;;3.00;1.00;;;;;;5065041;28;19959;-76
2024/03/26 05:45:41;;;;;;;;;;;3.10;1.00;;;;;;5051845;28;19913;-76
2024/03/26 05:48:29;;;;;;;;;;;3.10;1.00;;;;;;5051289;28;19913;-76
2024/03/26 05:50:59;;;;;;;;;;;3.30;1.00;;;;;;5056723;28;19909;-76
2024/03/26 05:53:53;;;;;;;;;;;3.30;1.00;;;;;;5047090;28;19912;-77
2024/03/26 05:56:53;;;;;;;;;;;3.40;1.00;;;;;;5042415;28;19917;-76
2024/03/26 05:59:29;;;;;;;;;;;3.50;1.00;;;;;;5048564;28;19952;-78
2024/03/26 06:02:29;;;;;;;;;;;3.60;1.00;;;;;;5049178;28;19909;-77
2024/03/26 06:07:57;;;;;;;;;;;4.00;1.00;;;;;;5070133;28;19994;-76
2024/03/26 06:13:26;;;;;;;;;;;4.50;1.00;;;;;;5042178;28;20011;-77
2024/03/26 06:16:03;;;;;;;;;;;4.70;1.00;;;;;;5053581;28;20039;-76
2024/03/26 06:18:41;;;;;;;;;;;4.90;1.00;;;;;;5055604;28;19935;-75
2024/03/26 06:21:06;;;;;;;;;;;5.00;1.00;;;;;;5047434;28;19920;-77
2024/03/26 06:23:47;;;;;;;;;;;5.50;1.00;;;;;;5043462;28;20015;-78
2024/03/26 06:29:16;;;;;;;;;;;5.90;1.00;;;;;;5060832;28;20283;-78
2024/03/26 06:31:47;;;;;;;;;;;6.10;1.00;;;;;;5055774;28;19913;-79
2024/03/26 06:37:41;;;;;;;;;;;6.60;1.00;;;;;;5049599;28;20279;-79
2024/03/26 06:43:11;;;;;;;;;;;6.80;1.00;;;;;;5037780;28;19932;-79
2024/03/26 06:55:05;;;;;;;;;;;7.30;1.00;;;;;;5054139;28;19996;-79
2024/03/26 07:03:36;;;;;;;;;;;7.60;1.00;;;;;;5054980;28;19919;-78
2024/03/26 07:06:17;;;;;;;;;;;7.70;1.00;;;;;;5055371;28;20279;-78
2024/03/26 07:11:45;;;;;;;;;;;7.80;1.00;;;;;;5070323;28;19924;-76
2024/03/26 07:14:35;;;;;;;;;;;7.80;1.00;;;;;;5054751;28;19909;-76
2024/03/26 07:17:11;;;;;;;;;;;8.00;1.00;;;;;;5054936;28;19917;-75
2024/03/26 07:19:36;;;;;;;;;;;8.00;1.00;;;;;;5052662;28;19963;-75
2024/03/26 07:22:17;;;;;;;;;;;8.30;1.00;;;;;;5055862;28;19917;-80
2024/03/26 07:25:05;;;;;;;;;;;8.40;1.00;;;;;;5051527;28;19994;-79
2024/03/26 07:27:53;;;;;;;;;;;8.70;1.00;;;;;;5041164;28;20340;-79
2024/03/26 07:33:29;;;;;;;;;;;8.90;1.00;;;;;;5052312;28;20280;-79
2024/03/26 07:35:54;;;;;;;;;;;9.00;1.00;;;;;;5057861;28;20364;-76
2024/03/26 07:38:20;;;;;;;;;;;9.10;1.00;;;;;;5069053;28;19920;-76
2024/03/26 07:40:46;;;;;;;;;;;9.30;1.00;;;;;;5055106;28;20008;-75
2024/03/26 07:43:11;;;;;;;;;;;9.40;1.00;;;;;;5061991;28;19919;-75
2024/03/26 07:45:37;;;;;;;;;;;9.50;1.00;;;;;;5064987;28;19916;-76
2024/03/26 07:48:03;;;;;;;;;;;9.70;1.00;;;;;;5054535;28;19921;-75
2024/03/26 07:50:29;;;;;;;;;;;9.90;1.00;;;;;;5053901;28;19909;-76
2024/03/26 07:52:54;;;;;;;;;;;9.90;1.00;;;;;;5053766;28;19916;-76
2024/03/26 07:55:29;;;;;;;;;;;10.00;1.00;;;;;;5053855;28;20340;-77
2024/03/26 07:58:11;;;;;;;;;;;10.10;1.00;;;;;;5058487;28;19913;-78
2024/03/26 08:01:11;;;;;;;;;;;10.10;1.00;;;;;;5056795;28;19926;-77
2024/03/26 08:03:53;;;;;;;;;;;10.20;1.00;;;;;;5057734;28;19913;-76
2024/03/26 08:06:19;;;;;;;;;;;10.30;1.00;;;;;;5038305;28;19921;-78
2024/03/26 08:08:53;;;;;;;;;;;10.40;1.00;;;;;;5047656;28;19912;-78
2024/03/26 08:11:35;;;;;;;;;;;10.50;1.00;;;;;;5053317;28;19956;-78
2024/03/26 08:14:11;;;;;;;;;;;10.50;1.00;;;;;;5054512;28;19952;-78
2024/03/26 08:19:40;;;;;;;;;;;10.60;1.00;;;;;;5057267;28;20052;-77
2024/03/26 08:25:23;;;;;;;;;;;10.50;1.00;;;;;;5060366;28;20280;-78
2024/03/26 08:27:49;;;;;;;;;;;10.70;1.00;;;;;;5053053;28;19917;-79
2024/03/26 08:36:31;;;;;;;;;;;10.60;1.00;;;;;;5053370;28;19920;-77
2024/03/26 08:42:11;;;;;;;;;;;10.90;1.00;;;;;;5045842;28;19920;-76
2024/03/26 08:47:47;;;;;;;;;;;11.10;1.00;;;;;;5053181;28;19999;-76
2024/03/26 08:50:17;;;;;;;;;;;11.30;1.00;;;;;;5052733;28;19915;-76
2024/03/26 08:52:47;;;;;;;;;;;11.40;1.00;;;;;;5045237;28;19917;-76
2024/03/26 08:55:29;;;;;;;;;;;11.50;1.00;;;;;;5065052;28;19966;-77
2024/03/26 08:57:54;;;;;;;;;;;11.60;1.00;;;;;;5054689;28;19948;-77
2024/03/26 09:00:29;;;;;;;;;;;11.50;1.00;;;;;;5052960;28;19956;-76
2024/03/26 09:02:54;;;;;;;;;;;11.60;1.00;;;;;;5044167;28;19932;-77
2024/03/26 09:05:58;;;;;;;;;;;11.70;1.00;;;;;;5048262;28;19913;-77
2024/03/26 09:08:41;;;;;;;;;;;11.80;1.00;;;;;;5044929;28;19929;-76
2024/03/26 09:11:23;;;;;;;;;;;12.10;1.00;;;;;;5053379;28;19912;-76
2024/03/26 09:13:53;;;;;;;;;;;12.30;1.00;;;;;;5058790;28;19917;-76
2024/03/26 09:16:18;;;;;;;;;;;12.40;1.00;;;;;;5053516;28;19919;-76
2024/03/26 09:18:53;;;;;;;;;;;12.40;1.00;;;;;;5065783;28;20268;-76
2024/03/26 09:21:42;;;;;;;;;;;12.40;1.00;;;;;;5057187;28;19913;-80
2024/03/26 09:24:08;;;;;;;;;;;12.40;1.00;;;;;;5051178;28;20360;-67
2024/03/26 09:26:34;;;;;;;;;;;12.60;1.00;;;;;;5051203;28;20000;-67
2024/03/26 09:29:29;;;;;;;;;;;12.40;1.00;;;;;;5052432;28;19916;-80
2024/03/26 09:34:57;;;;;;;;;;;12.70;1.00;;;;;;5056459;28;19915;-88
2024/03/26 09:40:26;;;;;;;;;;;12.60;1.00;;;;;;5061041;28;19916;-83
2024/03/26 09:49:23;;;;;;;;;;;12.90;1.00;;;;;;5058923;28;19916;-84
2024/03/26 09:55:09;;;;;;;;;;;12.90;1.00;;;;;;5045989;28;19920;-75
2024/03/26 10:04:05;;;;;;;;;;;13.20;1.00;;;;;;5041530;28;19992;-78
2024/03/26 10:06:42;;;;;;;;;;;13.30;1.00;;;;;;5047856;28;19932;-76
2024/03/26 10:15:18;;;;;;;;;;;13.50;1.00;;;;;;5063247;28;19966;-78
2024/03/26 10:18:17;;;;;;;;;;;13.70;1.00;;;;;;5055537;28;20403;-79
2024/03/26 10:20:47;;;;;;;;;;;13.90;1.00;;;;;;5052278;28;19916;-79
2024/03/26 10:23:17;;;;;;;;;;;14.20;1.00;;;;;;5054052;28;19913;-77
2024/03/26 10:25:47;;;;;;;;;;;14.10;1.00;;;;;;5055269;28;19908;-78
2024/03/26 10:28:23;;;;;;;;;;;14.20;1.00;;;;;;5038980;28;20046;-83
2024/03/26 10:30:52;;;;;;;;;;;14.40;1.00;;;;;;5041048;28;19921;-77
2024/03/26 10:39:32;;;;;;;;;;;14.90;1.00;;;;;;5047714;28;19974;-78
2024/03/26 10:45:11;;;;;;;;;;;15.00;1.00;;;;;;5054954;28;19975;-78
2024/03/26 10:47:37;;;;;;;;;;;15.10;1.00;;;;;;5058318;28;19945;-79
2024/03/26 10:50:18;;;;;;;;;;;15.10;1.00;;;;;;5061130;28;19974;-77
2024/03/26 10:52:47;;;;;;;;;;;15.10;1.00;;;;;;5040391;28;20425;-78
2024/03/26 10:58:17;;;;;;;;;;;14.90;1.00;;;;;;5055535;28;20419;-78
2024/03/26 11:03:46;;;;;;;;;;;15.20;1.00;;;;;;5060668;28;19916;-78
2024/03/26 11:06:20;;;;;;;;;;;15.10;1.00;;;;;;5049321;28;20268;-78
2024/03/26 11:08:47;;;;;;;;;;;15.20;1.00;;;;;;5060496;28;20005;-77
2024/03/26 11:11:23;;;;;;;;;;;15.20;1.00;;;;;;5062568;28;19920;-78
2024/03/26 11:14:11;;;;;;;;;;;15.10;1.00;;;;;;5041807;28;19923;-78
2024/03/26 11:19:50;;;;;;;;;;;15.30;1.00;;;;;;5037902;28;19960;-78
2024/03/26 11:22:17;;;;;;;;;;;15.40;1.00;;;;;;5049073;28;19909;-78
2024/03/26 11:25:17;;;;;;;;;;;15.40;1.00;;;;;;5060972;28;19963;-81
2024/03/26 11:28:05;;;;;;;;;;;15.50;1.00;;;;;;5053095;28;19917;-79
2024/03/26 11:30:32;;;;;;;;;;;15.50;1.00;;;;;;5063395;28;19913;-79
2024/03/26 11:33:04;;;;;;;;;;;15.50;1.00;;;;;;5052688;28;19992;-81
2024/03/26 11:35:51;;;;;;;;;;;15.40;1.00;;;;;;5047043;28;19909;-78
2024/03/26 11:38:35;;;;;;;;;;;15.40;1.00;;;;;;5047979;28;19913;-78
2024/03/26 11:41:01;;;;;;;;;;;15.60;1.00;;;;;;5040765;28;20174;-78
2024/03/26 11:46:43;;;;;;;;;;;15.40;1.00;;;;;;5048275;28;19916;-78
2024/03/26 11:52:12;;;;;;;;;;;15.20;1.00;;;;;;5057030;28;19974;-78
2024/03/26 11:55:11;;;;;;;;;;;15.20;1.00;;;;;;5063184;28;19913;-78
2024/03/26 12:01:05;;;;;;;;;;;15.20;1.00;;;;;;5052550;28;19971;-80
2024/03/26 12:06:47;;;;;;;;;;;15.70;1.00;;;;;;5050918;28;19923;-77
2024/03/26 12:09:17;;;;;;;;;;;15.80;1.00;;;;;;5054346;28;19916;-77
2024/03/26 12:11:47;;;;;;;;;;;16.00;1.00;;;;;;5060774;28;19931;-79
2024/03/26 12:14:48;;;;;;;;;;;16.20;1.00;;;;;;5052373;28;19920;-79
2024/03/26 12:17:23;;;;;;;;;;;16.50;1.00;;;;;;5056185;28;19928;-78
2024/03/26 12:20:11;;;;;;;;;;;16.40;1.00;;;;;;5051900;28;19932;-79
2024/03/26 12:25:43;;;;;;;;;;;16.80;1.00;;;;;;5046707;28;20322;-79
2024/03/26 12:31:41;;;;;;;;;;;17.40;1.00;;;;;;5054722;28;20001;-77
2024/03/26 12:34:29;;;;;;;;;;;17.40;1.00;;;;;;5046250;28;20007;-78
2024/03/26 12:36:59;;;;;;;;;;;17.40;1.00;;;;;;5051696;28;19960;-76
2024/03/26 12:39:25;;;;;;;;;;;17.50;1.00;;;;;;5044147;28;19913;-78
2024/03/26 12:41:51;;;;;;;;;;;17.60;1.00;;;;;;5050075;28;20245;-75
2024/03/26 12:44:18;;;;;;;;;;;17.30;1.00;;;;;;5051948;28;19919;-76
2024/03/26 12:46:47;;;;;;;;;;;17.20;1.00;;;;;;5050791;28;19920;-75
2024/03/26 12:49:19;;;;;;;;;;;17.20;1.00;;;;;;5051364;28;19931;-76
2024/03/26 12:51:55;;;;;;;;;;;17.10;1.00;;;;;;5057238;28;19918;-76
2024/03/26 12:54:23;;;;;;;;;;;17.10;1.00;;;;;;5048440;28;19913;-79
2024/03/26 12:56:53;;;;;;;;;;;17.10;1.00;;;;;;5048877;28;19971;-78
2024/03/26 12:59:30;;;;;;;;;;;17.10;1.00;;;;;;5054577;28;19913;-78
2024/03/26 13:02:11;;;;;;;;;;;17.00;1.00;;;;;;5056534;28;20279;-78
2024/03/26 13:04:41;;;;;;;;;;;17.10;1.00;;;;;;5053635;28;19916;-78
2024/03/26 13:07:23;;;;;;;;;;;17.20;1.00;;;;;;5054486;28;19913;-78
2024/03/26 13:09:49;;;;;;;;;;;17.10;1.00;;;;;;5055988;28;20000;-77
2024/03/26 13:12:14;;;;;;;;;;;17.00;1.00;;;;;;5054424;28;20004;-81
2024/03/26 13:17:43;;;;;;;;;;;16.90;1.00;;;;;;5055472;28;19920;-78
2024/03/26 13:29:17;;;;;;;;;;;16.30;1.00;;;;;;5045968;28;20335;-80
2024/03/26 13:32:05;;;;;;;;;;;15.90;1.00;;;;;;5044523;28;19948;-79
2024/03/26 13:35:06;;;;;;;;;;;15.80;1.00;;;;;;5046889;28;19914;-78
2024/03/26 13:41:05;;;;;;;;;;;16.10;1.00;;;;;;5066526;28;19924;-79
2024/03/26 13:43:47;;;;;;;;;;;16.20;1.00;;;;;;5059402;28;19913;-77
2024/03/26 13:46:23;;;;;;;;;;;16.60;1.00;;;;;;5060056;28;19912;-76
2024/03/26 13:49:00;;;;;;;;;;;16.70;1.00;;;;;;5063748;28;19999;-76
2024/03/26 13:54:29;;;;;;;;;;;17.00;1.00;;;;;;5048288;28;20059;-76
2024/03/26 13:57:12;;;;;;;;;;;17.50;1.00;;;;;;5056362;28;19909;-77
2024/03/26 14:00:07;;;;;;;;;;;17.50;1.00;;;;;;5055463;28;19909;-77
2024/03/26 14:02:33;;;;;;;;;;;17.10;1.00;;;;;;5063890;28;20331;-78
2024/03/26 14:08:02;;;;;;;;;;;17.00;1.00;;;;;;5035621;28;19940;-74
2024/03/26 14:10:29;;;;;;;;;;;17.00;1.00;;;;;;5055589;28;19908;-77
2024/03/26 14:13:11;;;;;;;;;;;16.90;1.00;;;;;;5055410;28;20331;-78
2024/03/26 14:15:53;;;;;;;;;;;17.10;1.00;;;;;;5037501;28;19916;-78
2024/03/26 14:18:23;;;;;;;;;;;17.20;1.00;;;;;;5042426;28;19920;-78
2024/03/26 14:23:52;;;;;;;;;;;17.30;1.00;;;;;;5035466;28;20007;-78
2024/03/26 14:29:23;;;;;;;;;;;17.00;1.00;;;;;;5051961;28;19984;-79
2024/03/26 14:32:11;;;;;;;;;;;17.00;1.00;;;;;;5060629;28;19924;-78
2024/03/26 14:34:47;;;;;;;;;;;16.90;1.00;;;;;;5043161;28;19935;-81
2024/03/26 14:37:38;;;;;;;;;;;16.80;1.00;;;;;;5037314;28;19913;-81
2024/03/26 14:40:23;;;;;;;;;;;16.80;1.00;;;;;;5061149;28;19971;-80
2024/03/26 14:42:49;;;;;;;;;;;16.80;1.00;;;;;;5054462;28;19920;-75
2024/03/26 14:45:35;;;;;;;;;;;17.10;1.00;;;;;;5064342;28;19909;-76
2024/03/26 14:48:05;;;;;;;;;;;17.30;1.00;;;;;;5074667;28;19983;-74
2024/03/26 14:51:05;;;;;;;;;;;17.50;1.00;;;;;;5058332;28;19916;-74
2024/03/26 14:53:41;;;;;;;;;;;17.50;1.00;;;;;;5043622;28;19917;-74
2024/03/26 14:56:18;;;;;;;;;;;17.60;1.00;;;;;;5054678;28;19909;-74
2024/03/26 14:59:05;;;;;;;;;;;17.20;1.00;;;;;;5050460;28;19916;-78
2024/03/26 15:04:33;;;;;;;;;;;17.30;1.00;;;;;;5061772;28;19915;-91
2024/03/26 15:10:03;;;;;;;;;;;17.90;1.00;;;;;;5048411;28;19962;-85
2024/03/26 15:12:29;;;;;;;;;;;18.40;1.00;;;;;;5049060;28;19919;-80
2024/03/26 15:14:55;;;;;;;;;;;18.80;1.00;;;;;;5054589;28;19908;-75
2024/03/26 15:17:21;;;;;;;;;;;18.70;1.00;;;;;;5047298;28;19968;-75
2024/03/26 15:19:47;;;;;;;;;;;18.80;1.00;;;;;;5054263;28;19944;-75
2024/03/26 15:22:14;;;;;;;;;;;19.00;1.00;;;;;;5054401;28;19987;-75
2024/03/26 15:24:42;;;;;;;;;;;20.00;1.00;;;;;;5052879;28;21363;-75
2024/03/26 15:35:46;;;;;;;;;;;22.90;1.00;;;;;;5045608;28;20387;-81
2024/03/26 15:38:41;;;;;;;;;;;23.30;1.00;;;;;;5053608;28;19913;-81
2024/03/26 15:41:07;;;;;;;;;;;23.80;1.00;;;;;;5073933;28;19912;-78
2024/03/26 15:43:32;;;;;;;;;;;24.80;1.00;;;;;;5039792;28;19909;-75
2024/03/26 15:45:58;;;;;;;;;;;24.80;1.00;;;;;;5055437;28;20422;-75
2024/03/26 15:48:41;;;;;;;;;;;24.60;1.00;;;;;;5056392;28;19920;-75
2024/03/26 15:51:07;;;;;;;;;;;24.60;1.00;;;;;;5058217;28;20509;-76
2024/03/26 15:53:35;;;;;;;;;;;25.00;1.00;;;;;;5053877;28;20371;-76
2024/03/26 15:56:06;;;;;;;;;;;25.90;1.00;;;;;;5054036;28;20272;-76
2024/03/26 15:58:32;;;;;;;;;;;26.00;1.00;;;;;;5053509;28;19917;-76
2024/03/26 16:01:08;;;;;;;;;;;26.10;1.00;;;;;;5057350;28;20092;-76
2024/03/26 16:03:35;;;;;;;;;;;26.30;1.00;;;;;;5063224;28;19909;-76
2024/03/26 16:06:05;;;;;;;;;;;26.40;1.00;;;;;;5053596;28;19955;-77
2024/03/26 16:08:31;;;;;;;;;;;27.20;1.00;;;;;;5061624;28;19950;-76
2024/03/26 16:11:23;;;;;;;;;;;27.40;1.00;;;;;;5054333;28;19916;-76
2024/03/26 16:14:11;;;;;;;;;;;27.10;1.00;;;;;;5052441;28;19966;-77
2024/03/26 16:16:37;;;;;;;;;;;27.10;1.00;;;;;;5041853;28;19917;-76
2024/03/26 16:19:05;;;;;;;;;;;27.30;1.00;;;;;;5065033;28;19908;-76
2024/03/26 16:21:31;;;;;;;;;;;27.40;1.00;;;;;;5053152;28;19909;-76
2024/03/26 16:24:05;;;;;;;;;;;27.20;1.00;;;;;;5067033;28;19916;-76
2024/03/26 16:26:41;;;;;;;;;;;27.10;1.00;;;;;;5066621;28;19936;-76
2024/03/26 16:29:08;;;;;;;;;;;26.40;1.00;;;;;;5049896;28;19917;-78
2024/03/26 16:31:59;;;;;;;;;;;24.80;1.00;;;;;;5052967;28;20500;-78
2024/03/26 16:34:35;;;;;;;;;;;24.80;1.00;;;;;;5042677;28;20312;-77
2024/03/26 16:37:29;;;;;;;;;;;23.90;1.00;;;;;;5034531;28;19917;-78
2024/03/26 16:39:55;;;;;;;;;;;22.20;1.00;;;;;;5070891;28;19923;-78
2024/03/26 16:42:47;;;;;;;;;;;22.10;1.00;;;;;;5056968;28;19983;-78
2024/03/26 16:45:47;;;;;;;;;;;21.40;1.00;;;;;;5056885;28;19920;-78
2024/03/26 16:48:47;;;;;;;;;;;20.20;1.00;;;;;;5054554;28;19912;-78
2024/03/26 16:54:44;;;;;;;;;;;19.70;1.00;;;;;;5058643;28;20337;-79
2024/03/26 16:57:17;;;;;;;;;;;19.20;1.00;;;;;;5056301;28;19944;-79
2024/03/26 17:03:17;;;;;;;;;;;18.10;1.00;;;;;;5056585;28;19921;-78
2024/03/26 17:08:45;;;;;;;;;;;17.80;1.00;;;;;;5060768;28;20279;-79
2024/03/26 17:11:47;;;;;;;;;;;17.60;1.00;;;;;;5061516;28;19913;-78
2024/03/26 17:14:17;;;;;;;;;;;17.50;1.00;;;;;;5055559;28;19913;-79
2024/03/26 17:16:43;;;;;;;;;;;17.30;1.00;;;;;;5056509;28;19917;-69
2024/03/26 17:19:08;;;;;;;;;;;17.00;1.00;;;;;;5055920;28;19913;-69
2024/03/26 17:21:35;;;;;;;;;;;16.90;1.00;;;;;;5060377;28;19917;-84
2024/03/26 17:24:01;;;;;;;;;;;16.70;1.00;;;;;;5052243;28;19910;-83
2024/03/26 17:26:26;;;;;;;;;;;16.30;1.00;;;;;;5060050;28;19973;-83
2024/03/26 17:28:52;;;;;;;;;;;16.30;1.00;;;;;;5058684;28;19909;-84
2024/03/26 17:31:19;;;;;;;;;;;16.00;1.00;;;;;;5039543;28;19917;-80
2024/03/26 17:33:53;;;;;;;;;;;15.70;1.00;;;;;;5037817;28;19916;-83
2024/03/26 17:42:41;;;;;;;;;;;15.10;1.00;;;;;;5070076;28;19963;-82
2024/03/26 17:48:19;;;;;;;;;;;14.40;1.00;;;;;;5058289;28;19915;-82
2024/03/26 17:50:57;;;;;;;;;;;14.20;1.00;;;;;;5055631;28;20067;-82
2024/03/26 17:53:35;;;;;;;;;;;14.10;1.00;;;;;;5042571;28;19917;-82
2024/03/26 17:56:05;;;;;;;;;;;13.90;1.00;;;;;;5055726;28;19915;-82
2024/03/26 17:58:35;;;;;;;;;;;13.70;1.00;;;;;;5055132;28;19915;-81
2024/03/26 18:01:06;;;;;;;;;;;13.60;1.00;;;;;;5034915;28;20301;-82
2024/03/26 18:06:34;;;;;;;;;;;13.50;1.00;;;;;;5052439;28;19938;-82
2024/03/26 18:12:17;;;;;;;;;;;13.20;1.00;;;;;;5059617;28;19924;-82
2024/03/26 18:14:51;;;;;;;;;;;13.00;1.00;;;;;;5065873;28;19912;-82
2024/03/26 18:17:47;;;;;;;;;;;12.70;1.00;;;;;;5040991;28;19917;-82
2024/03/26 18:20:47;;;;;;;;;;;12.60;1.00;;;;;;5060065;28;19913;-82
2024/03/26 18:23:24;;;;;;;;;;;12.40;1.00;;;;;;5072365;28;19935;-82
2024/03/26 18:26:11;;;;;;;;;;;12.20;1.00;;;;;;5057168;28;20522;-82
2024/03/26 18:28:47;;;;;;;;;;;12.00;1.00;;;;;;5054982;28;19912;-82
2024/03/26 18:31:18;;;;;;;;;;;12.00;1.00;;;;;;5063598;28;19963;-83
2024/03/26 18:34:17;;;;;;;;;;;11.90;1.00;;;;;;5057033;28;19934;-82
2024/03/26 18:36:48;;;;;;;;;;;11.80;1.00;;;;;;5051928;28;19959;-77
2024/03/26 18:39:17;;;;;;;;;;;11.60;1.00;;;;;;5047270;28;20031;-76
2024/03/26 18:42:11;;;;;;;;;;;11.50;1.00;;;;;;5053192;28;19952;-75
2024/03/26 18:44:41;;;;;;;;;;;11.30;1.00;;;;;;5054694;28;19909;-78
2024/03/26 18:47:17;;;;;;;;;;;11.20;1.00;;;;;;5055140;28;19919;-76
2024/03/26 18:49:49;;;;;;;;;;;11.10;1.00;;;;;;5053026;28;20430;-76
2024/03/26 18:52:17;;;;;;;;;;;11.00;1.00;;;;;;5051882;28;20015;-75
2024/03/26 18:54:47;;;;;;;;;;;10.90;1.00;;;;;;5049744;28;19909;-76
2024/03/26 18:57:24;;;;;;;;;;;10.80;1.00;;;;;;5063565;28;19996;-78
2024/03/26 18:59:54;;;;;;;;;;;10.70;1.00;;;;;;5057906;28;19992;-78
2024/03/26 19:05:17;;;;;;;;;;;10.60;1.00;;;;;;5047813;28;19913;-77
2024/03/26 19:07:54;;;;;;;;;;;10.50;1.00;;;;;;5054100;28;19920;-77
2024/03/26 19:10:19;;;;;;;;;;;10.40;1.00;;;;;;5049868;28;19917;-77
2024/03/26 19:15:48;;;;;;;;;;;10.20;1.00;;;;;;5053910;28;19913;-77
2024/03/26 19:18:19;;;;;;;;;;;10.10;1.00;;;;;;5049886;28;19916;-78
2024/03/26 19:21:05;;;;;;;;;;;10.00;1.00;;;;;;5048530;28;19913;-77
2024/03/26 19:26:34;;;;;;;;;;;9.80;1.00;;;;;;5053591;28;20012;-78
2024/03/26 19:32:17;;;;;;;;;;;9.70;1.00;;;;;;5035228;28;19932;-78
2024/03/26 19:35:18;;;;;;;;;;;9.60;1.00;;;;;;5048035;28;19951;-77
2024/03/26 19:37:47;;;;;;;;;;;9.60;1.00;;;;;;5045825;28;19948;-77
2024/03/26 19:40:35;;;;;;;;;;;9.50;1.00;;;;;;5050783;28;20006;-77
2024/03/26 19:43:05;;;;;;;;;;;9.40;1.00;;;;;;5055024;28;19974;-77
2024/03/26 19:45:35;;;;;;;;;;;9.40;1.00;;;;;;5060635;28;19908;-77
2024/03/26 19:48:11;;;;;;;;;;;9.30;1.00;;;;;;5051375;28;19912;-77
2024/03/26 19:50:50;;;;;;;;;;;9.30;1.00;;;;;;5061982;28;19956;-78
2024/03/26 19:53:41;;;;;;;;;;;9.20;1.00;;;;;;5051641;28;19972;-77
2024/03/26 19:56:11;;;;;;;;;;;9.20;1.00;;;;;;5053156;28;19962;-77
2024/03/26 19:58:47;;;;;;;;;;;9.10;1.00;;;;;;5066084;28;19913;-77
2024/03/26 20:01:41;;;;;;;;;;;9.10;1.00;;;;;;5053097;28;19947;-79